Terminal Aerodrome Forecast
Issued by NWS

Home | Current Version | Previous Version | Text Only | Print | Product List | Glossary Off
Versions: 1 2 3 4 5 6 7 8 9 10 11 12 13 14 15 16 17 18 19 20 21 22 23 24 25 26 27 28 29 30 31 32

000
FTUS43 KABR 061120
TAFMBG
TAF
KMBG 061120Z 0612/0712 30027G39KT 1SM -SN BLSN OVC015
      TEMPO 0612/0615 5SM -SN BLSN SCT015 BKN025 OVC035
     FM061500 30026G38KT 2SM BLSN VCSH BKN025
      TEMPO 0615/0617 5SM BLSN SCT025 BKN040
     FM061700 31027G39KT 6SM BLSN BKN035
     FM062200 31023G34KT P6SM BKN070=

USA.gov is the U.S. government's official web portal to all federal, state and local government web resources and services.